createdAt,value
2023-11-12T00:00:16.263Z,0.77
2023-11-12T00:05:21.011Z,0.80
2023-11-12T00:10:24.746Z,0.80
2023-11-12T00:15:28.457Z,0.73
2023-11-12T00:20:31.965Z,0.70
2023-11-12T00:25:36.046Z,0.63
2023-11-12T00:30:39.701Z,0.60
2023-11-12T00:35:43.505Z,0.93
2023-11-12T00:40:48.010Z,0.90
2023-11-12T00:45:59.512Z,0.53
2023-11-12T00:51:03.463Z,0.90
2023-11-12T00:56:09.196Z,0.80
2023-11-12T01:01:15.495Z,0.87
2023-11-12T01:06:19.244Z,0.77
2023-11-12T01:11:22.952Z,0.70
2023-11-12T01:16:27.196Z,0.80
2023-11-12T01:21:30.862Z,0.80
2023-11-12T01:26:35.244Z,0.80
2023-11-12T01:31:38.860Z,0.93
2023-11-12T01:36:42.693Z,0.87
2023-11-12T01:41:46.406Z,1.03
2023-11-12T01:46:52.646Z,0.73
2023-11-12T01:51:56.290Z,0.83
2023-11-12T01:57:01.769Z,0.93
2023-11-12T02:02:06.558Z,0.67
2023-11-12T02:07:10.190Z,0.97
2023-11-12T02:12:14.712Z,0.80
2023-11-12T02:17:18.490Z,0.80
2023-11-12T02:22:22.048Z,0.90
2023-11-12T02:27:25.609Z,0.93
2023-11-12T02:32:36.032Z,0.80
2023-11-12T02:37:40.054Z,0.90
2023-11-12T02:42:44.608Z,0.80
2023-11-12T02:47:48.642Z,0.90
2023-11-12T02:52:55.011Z,0.93
2023-11-12T02:57:59.666Z,1.00
2023-11-12T03:03:03.979Z,0.80
2023-11-12T03:08:07.900Z,0.90
2023-11-12T03:13:11.531Z,0.93
2023-11-12T03:18:15.377Z,0.97
2023-11-12T03:23:19.200Z,1.20
2023-11-12T03:28:22.751Z,0.97
2023-11-12T03:33:29.073Z,0.90
2023-11-12T03:38:33.138Z,1.00
2023-11-12T03:43:36.775Z,0.97
2023-11-12T03:48:40.515Z,1.20
2023-11-12T03:53:43.982Z,0.77
2023-11-12T03:58:47.832Z,0.90
2023-11-12T04:03:53.207Z,0.70
2023-11-12T04:08:57.049Z,0.80
2023-11-12T04:14:00.704Z,1.20
2023-11-12T04:19:05.013Z,0.73
2023-11-12T04:24:09.584Z,0.80
2023-11-12T04:29:14.569Z,0.80
2023-11-12T04:34:18.184Z,1.00
2023-11-12T04:39:21.938Z,0.87
2023-11-12T04:44:26.455Z,0.90
2023-11-12T04:49:30.180Z,1.00
2023-11-12T04:54:34.134Z,0.90
2023-11-12T04:59:42.164Z,0.90
2023-11-12T05:04:46.001Z,1.23
2023-11-12T05:09:49.793Z,0.70
2023-11-12T05:14:53.419Z,0.83
2023-11-12T05:19:57.246Z,1.20
2023-11-12T05:25:01.069Z,0.97
2023-11-12T05:30:05.222Z,0.93
2023-11-12T05:35:09.942Z,0.70
2023-11-12T05:40:13.885Z,0.70
2023-11-12T05:45:19.196Z,0.77
2023-11-12T05:50:24.401Z,1.00
2023-11-12T05:55:29.695Z,0.93
2023-11-12T06:00:33.729Z,1.20
2023-11-12T06:05:37.507Z,1.30
2023-11-12T06:10:44.425Z,1.10
2023-11-12T06:15:48.229Z,1.13
2023-11-12T06:20:52.010Z,1.90
2023-11-12T06:25:55.842Z,1.47
2023-11-12T06:30:59.383Z,0.90
2023-11-12T06:36:03.198Z,1.40
2023-11-12T06:41:09.852Z,1.20
2023-11-12T06:46:13.636Z,1.40
2023-11-12T06:51:25.097Z,1.33
2023-11-12T06:56:36.605Z,1.27
2023-11-12T07:01:40.372Z,1.20
2023-11-12T07:06:57.139Z,0.90
2023-11-12T07:12:08.571Z,1.00
2023-11-12T07:17:15.421Z,1.20
2023-11-12T07:22:19.947Z,1.07
2023-11-12T07:27:24.649Z,0.93
2023-11-12T07:32:28.344Z,1.20
2023-11-12T07:37:32.003Z,1.10
2023-11-12T07:42:35.962Z,1.27
2023-11-12T07:47:40.228Z,1.37
2023-11-12T07:52:44.155Z,1.20
2023-11-12T07:57:48.372Z,1.17
2023-11-12T08:02:53.072Z,1.07
2023-11-12T08:07:56.997Z,1.20
2023-11-12T08:13:00.744Z,1.40
2023-11-12T08:18:06.618Z,1.47
2023-11-12T08:23:10.459Z,1.30
2023-11-12T08:28:14.361Z,1.43
2023-11-12T08:33:18.632Z,1.40
2023-11-12T08:38:22.438Z,2.50
2023-11-12T08:43:26.032Z,1.60
2023-11-12T08:48:33.147Z,1.47
2023-11-12T08:53:38.363Z,1.87
2023-11-12T08:58:42.111Z,1.73
2023-11-12T09:03:45.774Z,1.40
2023-11-12T09:08:49.370Z,1.40
2023-11-12T09:13:52.993Z,1.30
2023-11-12T09:18:57.188Z,1.20
2023-11-12T09:24:01.357Z,1.03
2023-11-12T09:29:05.171Z,1.07
2023-11-12T09:34:08.886Z,1.37
2023-11-12T09:39:14.383Z,1.70
2023-11-12T09:44:35.434Z,1.60
2023-11-12T09:49:43.867Z,1.37
2023-11-12T09:54:48.607Z,1.87
2023-11-12T09:59:53.172Z,1.40
2023-11-12T10:05:02.137Z,0.93
2023-11-12T10:10:25.703Z,1.10
2023-11-12T10:15:34.948Z,1.60
2023-11-12T10:20:41.521Z,0.65
2023-11-12T10:25:49.712Z,0.90
2023-11-12T10:30:55.167Z,1.37
2023-11-12T10:36:10.206Z,1.60
2023-11-12T10:41:14.042Z,1.97
2023-11-12T10:46:17.889Z,1.93
2023-11-12T10:51:21.797Z,1.20
2023-11-12T10:56:28.484Z,1.20
2023-11-12T11:01:35.483Z,1.00
2023-11-12T11:06:42.345Z,1.00
2023-11-12T11:11:50.497Z,1.40
2023-11-12T11:16:54.984Z,1.37
2023-11-12T11:22:30.852Z,1.13
2023-11-12T11:27:34.751Z,1.10
2023-11-12T11:32:38.679Z,1.43
2023-11-12T11:38:11.466Z,0.90
2023-11-12T11:43:24.631Z,1.03
2023-11-12T11:48:28.975Z,3.67
2023-11-12T11:53:33.281Z,1.93
2023-11-12T11:58:52.860Z,1.00
2023-11-12T12:04:07.198Z,1.23
2023-11-12T12:09:18.052Z,1.10
2023-11-12T12:14:25.677Z,3.90
2023-11-12T12:19:29.436Z,1.63
2023-11-12T12:29:39.432Z,28.23
2023-11-12T12:34:46.315Z,1.80
2023-11-12T12:39:54.672Z,1.40
2023-11-12T12:44:59.904Z,6.27
2023-11-12T12:50:17.181Z,1.40
2023-11-12T12:55:22.678Z,1.93
2023-11-12T13:00:26.790Z,1.70
2023-11-12T13:05:30.418Z,2.30
2023-11-12T13:10:35.333Z,1.33
2023-11-12T13:15:39.156Z,3.50
2023-11-12T13:20:44.124Z,4.80
2023-11-12T13:25:51.164Z,1.50
2023-11-12T13:30:55.420Z,0.90
2023-11-12T13:36:01.273Z,0.90
2023-11-12T13:41:05.408Z,4.47
2023-11-12T13:46:09.113Z,1.50
2023-11-12T13:51:15.642Z,1.17
2023-11-12T13:56:19.341Z,1.10
2023-11-12T14:01:24.923Z,3.90
2023-11-12T14:06:28.561Z,1.67
2023-11-12T14:11:32.080Z,2.03
2023-11-12T14:16:39.004Z,1.90
2023-11-12T14:21:46.526Z,2.20
2023-11-12T14:26:51.177Z,2.43
2023-11-12T14:31:54.816Z,2.00
2023-11-12T14:36:58.886Z,21.67
2023-11-12T14:42:04.430Z,8.10
2023-11-12T14:47:07.998Z,11.10
2023-11-12T14:52:12.565Z,6.40
2023-11-12T14:57:17.864Z,3.53
2023-11-12T15:02:21.860Z,4.40
2023-11-12T15:07:25.786Z,13.60
2023-11-12T15:12:30.720Z,17.07
2023-11-12T15:17:34.328Z,21.03
2023-11-12T15:22:38.714Z,11.20
2023-11-12T15:27:46.587Z,19.63
2023-11-12T15:32:50.472Z,11.30
2023-11-12T15:37:54.284Z,8.17
2023-11-12T15:42:58.491Z,7.40
2023-11-12T15:48:02.107Z,8.30
2023-11-12T15:53:06.136Z,9.60
2023-11-12T15:58:12.369Z,5.03
2023-11-12T16:03:18.860Z,4.73
2023-11-12T16:08:22.943Z,4.20
2023-11-12T16:13:26.896Z,3.70
2023-11-12T16:18:30.341Z,4.77
2023-11-12T16:23:34.304Z,5.80
2023-11-12T16:28:39.544Z,9.57
2023-11-12T16:33:43.352Z,9.47
2023-11-12T16:38:46.911Z,6.97
2023-11-12T16:43:50.648Z,6.30
2023-11-12T16:48:54.968Z,6.40
2023-11-12T16:53:58.538Z,5.00
2023-11-12T16:59:02.034Z,4.30
2023-11-12T17:04:06.145Z,4.13
2023-11-12T17:09:13.417Z,4.93
2023-11-12T17:14:18.286Z,4.10
2023-11-12T17:19:22.379Z,3.77
2023-11-12T17:24:25.932Z,4.43
2023-11-12T17:29:29.564Z,4.00
2023-11-12T17:34:33.237Z,4.23
2023-11-12T17:39:37.148Z,3.97
2023-11-12T17:44:43.102Z,5.00
2023-11-12T17:49:56.470Z,3.70
2023-11-12T17:55:00.250Z,3.17
2023-11-12T18:00:07.372Z,4.13
2023-11-12T18:05:11.346Z,4.83
2023-11-12T18:10:15.206Z,6.27
2023-11-12T18:15:20.517Z,8.23
2023-11-12T18:20:25.207Z,9.13
2023-11-12T18:25:28.682Z,11.00
2023-11-12T18:30:32.698Z,8.97
2023-11-12T18:35:36.934Z,11.10
2023-11-12T18:40:43.259Z,13.63
2023-11-12T18:45:46.830Z,8.87
2023-11-12T18:50:52.120Z,6.50
2023-11-12T18:55:56.215Z,5.80
2023-11-12T19:01:00.768Z,4.13
2023-11-12T19:06:04.584Z,6.00
2023-11-12T19:11:08.602Z,7.20
2023-11-12T19:16:12.439Z,6.90
2023-11-12T19:21:16.427Z,5.87
2023-11-12T19:26:23.564Z,4.60
2023-11-12T19:31:33.163Z,5.53
2023-11-12T19:36:41.514Z,7.37
2023-11-12T19:41:45.297Z,6.10
2023-11-12T19:46:49.205Z,6.10
2023-11-12T19:51:52.756Z,5.47
2023-11-12T19:56:58.779Z,6.13
2023-11-12T20:02:07.625Z,4.90
2023-11-12T20:07:11.694Z,4.87
2023-11-12T20:12:15.554Z,4.47
2023-11-12T20:17:19.204Z,4.73
2023-11-12T20:22:22.959Z,5.33
2023-11-12T20:27:26.633Z,5.63
2023-11-12T20:32:30.301Z,6.70
2023-11-12T20:37:34.029Z,7.47
2023-11-12T20:42:38.884Z,9.70
2023-11-12T20:47:42.582Z,9.10
2023-11-12T20:52:46.975Z,7.60
2023-11-12T20:57:53.477Z,5.60
2023-11-12T21:02:57.369Z,5.17
2023-11-12T21:08:01.368Z,5.90
2023-11-12T21:13:04.908Z,5.40
2023-11-12T21:18:12.709Z,4.73
2023-11-12T21:23:16.343Z,4.70
2023-11-12T21:28:21.599Z,4.93
2023-11-12T21:33:25.433Z,4.13
2023-11-12T21:38:28.996Z,5.37
2023-11-12T21:43:33.865Z,9.77
2023-11-12T21:48:38.975Z,10.03
2023-11-12T21:53:42.763Z,12.53
2023-11-12T21:58:46.875Z,12.13
2023-11-12T22:03:51.513Z,13.07
2023-11-12T22:08:56.357Z,20.07
2023-11-12T22:14:00.770Z,17.83
2023-11-12T22:19:08.978Z,14.17
2023-11-12T22:24:12.710Z,16.20
2023-11-12T22:29:16.207Z,17.53
2023-11-12T22:34:22.434Z,12.67
2023-11-12T22:39:26.338Z,10.27
2023-11-12T22:44:30.320Z,5.97
2023-11-12T22:49:33.973Z,5.40
2023-11-12T22:54:38.376Z,5.00
2023-11-12T22:59:42.531Z,5.27
2023-11-12T23:04:46.124Z,4.77
2023-11-12T23:09:49.935Z,5.30
2023-11-12T23:14:53.482Z,4.20
2023-11-12T23:19:57.127Z,4.37
2023-11-12T23:25:01.805Z,4.77
2023-11-12T23:30:08.575Z,4.40
2023-11-12T23:35:12.489Z,4.73
2023-11-12T23:40:16.398Z,3.90
2023-11-12T23:45:20.042Z,4.60
2023-11-12T23:50:26.859Z,4.83
2023-11-12T23:55:30.475Z,5.33
